createdAt,value
2023-03-22T00:01:53.582Z,11.38
2023-03-22T00:04:42.741Z,11.82
2023-03-22T00:07:28.618Z,7.30
2023-03-22T00:10:14.159Z,11.90
2023-03-22T00:12:59.979Z,12.18
2023-03-22T00:15:49.021Z,11.70
2023-03-22T00:18:35.103Z,12.27
2023-03-22T00:21:22.728Z,11.38
2023-03-22T00:24:08.697Z,12.57
2023-03-22T00:26:54.907Z,10.73
2023-03-22T00:29:41.098Z,9.40
2023-03-22T00:32:28.780Z,10.23
2023-03-22T00:35:14.820Z,8.88
2023-03-22T00:38:06.291Z,8.23
2023-03-22T00:40:52.288Z,8.80
2023-03-22T00:43:38.599Z,9.80
2023-03-22T00:46:24.607Z,10.43
2023-03-22T00:49:10.367Z,10.48
2023-03-22T00:51:56.368Z,15.20
2023-03-22T00:54:43.766Z,12.82
2023-03-22T00:57:29.487Z,8.55
2023-03-22T01:00:16.777Z,7.68
2023-03-22T01:03:04.806Z,7.97
2023-03-22T01:05:55.475Z,8.18
2023-03-22T01:08:41.306Z,5.88
2023-03-22T01:11:29.021Z,8.38
2023-03-22T01:14:15.026Z,7.43
2023-03-22T01:17:01.056Z,8.25
2023-03-22T01:19:46.961Z,8.75
2023-03-22T01:22:32.665Z,7.82
2023-03-22T01:25:18.504Z,7.53
2023-03-22T01:28:06.837Z,12.80
2023-03-22T01:30:52.728Z,6.90
2023-03-22T01:33:38.599Z,12.02
2023-03-22T01:36:24.352Z,7.95
2023-03-22T01:39:10.492Z,14.88
2023-03-22T01:41:57.506Z,8.88
2023-03-22T01:45:04.966Z,8.95
2023-03-22T01:47:55.014Z,6.90
2023-03-22T01:50:45.745Z,8.45
2023-03-22T01:53:35.894Z,6.80
2023-03-22T01:56:30.020Z,9.38
2023-03-22T01:59:16.165Z,9.20
2023-03-22T02:02:22.293Z,8.40
2023-03-22T02:05:16.675Z,12.35
2023-03-22T02:08:04.457Z,8.48
2023-03-22T02:11:11.833Z,8.98
2023-03-22T02:14:43.283Z,8.73
2023-03-22T02:17:59.859Z,8.55
2023-03-22T02:21:02.614Z,15.38
2023-03-22T02:24:13.843Z,12.82
2023-03-22T02:27:25.540Z,9.65
2023-03-22T02:30:49.051Z,12.73
2023-03-22T02:34:02.274Z,12.70
2023-03-22T02:37:19.404Z,11.32
2023-03-22T02:40:14.388Z,13.93
2023-03-22T02:43:06.241Z,13.52
2023-03-22T02:45:57.074Z,18.55
2023-03-22T02:48:48.986Z,20.33
2023-03-22T02:51:41.059Z,16.70
2023-03-22T02:54:33.493Z,16.48
2023-03-22T02:57:29.969Z,15.50
2023-03-22T03:00:19.147Z,15.40
2023-03-22T03:03:12.626Z,12.63
2023-03-22T03:06:00.340Z,14.45
2023-03-22T03:08:50.820Z,17.17
2023-03-22T03:11:36.844Z,13.90
2023-03-22T03:14:26.842Z,13.70
2023-03-22T03:17:23.225Z,17.80
2023-03-22T03:20:29.966Z,14.18
2023-03-22T03:23:28.570Z,17.25
2023-03-22T03:26:22.366Z,20.00
2023-03-22T03:29:14.224Z,14.48
2023-03-22T03:32:07.812Z,16.90
2023-03-22T03:34:59.365Z,14.57
2023-03-22T03:37:48.500Z,15.73
2023-03-22T03:40:37.657Z,14.85
2023-03-22T03:43:25.621Z,15.93
2023-03-22T03:46:12.315Z,17.35
2023-03-22T03:49:00.096Z,15.27
2023-03-22T03:51:48.614Z,16.83
2023-03-22T03:54:34.526Z,13.68
2023-03-22T03:57:22.247Z,14.77
2023-03-22T04:00:09.518Z,16.38
2023-03-22T04:03:27.905Z,14.52
2023-03-22T04:06:35.010Z,13.52
2023-03-22T04:09:30.735Z,16.63
2023-03-22T04:12:23.457Z,14.10
2023-03-22T04:15:28.263Z,17.83
2023-03-22T04:18:19.746Z,13.52
2023-03-22T04:21:06.891Z,14.63
2023-03-22T04:24:04.134Z,15.07
2023-03-22T04:26:55.054Z,17.35
2023-03-22T04:29:48.203Z,13.98
2023-03-22T04:32:50.843Z,12.82
2023-03-22T04:35:41.490Z,15.52
2023-03-22T04:38:27.104Z,13.80
2023-03-22T04:41:16.019Z,13.25
2023-03-22T04:44:06.731Z,17.02
2023-03-22T04:46:56.561Z,10.97
2023-03-22T04:49:42.701Z,16.48
2023-03-22T04:52:29.055Z,14.90
2023-03-22T04:55:16.015Z,16.60
2023-03-22T04:58:04.724Z,10.75
2023-03-22T05:00:52.784Z,10.95
2023-03-22T05:03:40.119Z,15.82
2023-03-22T05:06:26.336Z,11.23
2023-03-22T05:09:23.459Z,10.90
2023-03-22T05:12:11.378Z,9.48
2023-03-22T05:15:07.479Z,12.55
2023-03-22T05:17:57.651Z,12.25
2023-03-22T05:20:43.404Z,14.57
2023-03-22T05:23:33.062Z,12.63
2023-03-22T05:26:20.350Z,9.30
2023-03-22T05:29:06.458Z,9.50
2023-03-22T05:32:07.428Z,9.85
2023-03-22T05:34:53.158Z,10.13
2023-03-22T05:37:54.193Z,10.18
2023-03-22T05:40:41.424Z,11.55
2023-03-22T05:43:27.543Z,12.55
2023-03-22T05:46:13.604Z,9.15
2023-03-22T05:49:11.676Z,8.88
2023-03-22T05:51:58.181Z,10.52
2023-03-22T05:54:51.611Z,10.85
2023-03-22T05:57:37.214Z,11.48
2023-03-22T06:00:25.806Z,11.32
2023-03-22T06:03:42.759Z,12.75
2023-03-22T06:06:37.782Z,15.35
2023-03-22T06:09:29.378Z,9.48
2023-03-22T06:12:16.235Z,13.65
2023-03-22T06:15:08.029Z,9.40
2023-03-22T06:18:05.596Z,9.85
2023-03-22T06:20:57.483Z,8.68
2023-03-22T06:23:45.628Z,11.73
2023-03-22T06:26:31.468Z,10.10
2023-03-22T06:29:17.521Z,11.77
2023-03-22T06:32:04.192Z,11.20
2023-03-22T06:34:50.337Z,9.57
2023-03-22T06:37:38.946Z,9.85
2023-03-22T06:40:26.479Z,8.38
2023-03-22T06:43:12.017Z,12.52
2023-03-22T06:46:01.521Z,9.63
2023-03-22T06:48:54.053Z,8.57
2023-03-22T06:51:40.655Z,9.10
2023-03-22T06:54:26.566Z,6.35
2023-03-22T06:57:13.899Z,6.85
2023-03-22T06:59:59.890Z,9.60
2023-03-22T07:02:46.477Z,7.22
2023-03-22T07:05:46.621Z,6.03
2023-03-22T07:08:32.087Z,5.22
2023-03-22T07:11:17.806Z,7.78
2023-03-22T07:14:09.557Z,13.43
2023-03-22T07:17:18.026Z,8.27
2023-03-22T07:20:07.747Z,5.32
2023-03-22T07:22:53.990Z,8.98
2023-03-22T07:25:42.351Z,7.00
2023-03-22T07:28:44.894Z,4.07
2023-03-22T07:31:37.657Z,13.15
2023-03-22T07:34:30.514Z,7.72
2023-03-22T07:37:21.929Z,5.82
2023-03-22T07:40:09.026Z,7.47
2023-03-22T07:42:56.130Z,9.07
2023-03-22T07:46:00.443Z,6.32
2023-03-22T07:49:20.002Z,4.88
2023-03-22T07:52:25.943Z,9.20
2023-03-22T07:55:14.169Z,11.27
2023-03-22T07:58:00.796Z,8.55
2023-03-22T08:00:49.393Z,9.27
2023-03-22T08:04:13.380Z,7.93
2023-03-22T08:07:20.945Z,8.88
2023-03-22T08:10:07.301Z,9.05
2023-03-22T08:12:54.573Z,9.15
2023-03-22T08:15:44.431Z,9.52
2023-03-22T08:18:30.500Z,13.35
2023-03-22T08:21:16.706Z,8.63
2023-03-22T08:24:06.344Z,10.65
2023-03-22T08:27:01.379Z,10.02
2023-03-22T08:29:58.664Z,11.18
2023-03-22T08:32:44.802Z,13.43
2023-03-22T08:35:30.573Z,11.05
2023-03-22T08:38:16.858Z,6.55
2023-03-22T08:41:09.909Z,11.05
2023-03-22T08:43:56.189Z,8.70
2023-03-22T08:46:42.021Z,8.35
2023-03-22T08:49:28.839Z,7.90
2023-03-22T08:52:20.792Z,9.93
2023-03-22T08:55:23.308Z,8.00
2023-03-22T08:58:29.891Z,10.40
2023-03-22T09:01:48.197Z,6.30
2023-03-22T09:04:33.787Z,6.32
2023-03-22T09:07:21.283Z,6.88
2023-03-22T09:10:16.805Z,5.65
2023-03-22T09:13:05.018Z,8.48
2023-03-22T09:15:52.963Z,10.57
2023-03-22T09:18:45.784Z,10.38
2023-03-22T09:21:35.893Z,7.82
2023-03-22T09:24:33.900Z,7.15
2023-03-22T09:27:22.192Z,6.65
2023-03-22T09:30:09.801Z,8.73
2023-03-22T09:32:58.619Z,6.63
2023-03-22T09:35:44.617Z,6.05
2023-03-22T09:38:33.798Z,9.70
2023-03-22T09:41:27.289Z,13.30
2023-03-22T09:44:18.765Z,9.40
2023-03-22T09:47:07.340Z,9.15
2023-03-22T09:50:03.064Z,6.40
2023-03-22T09:52:49.568Z,12.73
2023-03-22T09:55:41.660Z,9.10
2023-03-22T09:58:33.131Z,7.10
2023-03-22T10:01:26.611Z,6.22
2023-03-22T10:04:33.939Z,8.98
2023-03-22T10:07:27.748Z,5.78
2023-03-22T10:10:18.537Z,12.02
2023-03-22T10:13:09.630Z,6.60
2023-03-22T10:18:47.218Z,6.22
2023-03-22T10:21:34.809Z,4.63
2023-03-22T10:24:26.690Z,7.95
2023-03-22T10:27:16.261Z,7.00
2023-03-22T10:30:08.177Z,11.77
2023-03-22T10:33:00.563Z,4.43
2023-03-22T10:35:47.328Z,9.85
2023-03-22T10:38:36.380Z,6.97
2023-03-22T10:41:26.017Z,10.02
2023-03-22T10:44:17.801Z,5.50
2023-03-22T10:47:08.069Z,8.77
2023-03-22T10:49:57.185Z,9.55
2023-03-22T10:52:48.486Z,5.75
2023-03-22T10:55:39.895Z,10.65
2023-03-22T10:58:31.574Z,7.03
2023-03-22T11:01:26.839Z,6.40
2023-03-22T11:04:15.077Z,7.63
2023-03-22T11:07:01.323Z,5.63
2023-03-22T11:09:47.295Z,11.23
2023-03-22T11:12:33.096Z,9.70
2023-03-22T11:15:25.229Z,10.65
2023-03-22T11:18:15.987Z,5.10
2023-03-22T11:23:56.716Z,10.25
2023-03-22T11:26:45.017Z,7.40
2023-03-22T11:29:40.253Z,6.18
2023-03-22T11:32:31.128Z,8.13
2023-03-22T11:35:21.401Z,6.88
2023-03-22T11:38:22.810Z,8.45
2023-03-22T11:41:20.146Z,5.30
2023-03-22T11:44:10.059Z,4.10
2023-03-22T11:46:58.288Z,5.40
2023-03-22T11:49:47.609Z,7.78
2023-03-22T11:52:33.737Z,10.40
2023-03-22T11:55:20.063Z,5.25
2023-03-22T11:58:06.829Z,8.50
2023-03-22T12:00:55.035Z,9.15
2023-03-22T12:03:43.262Z,7.65
2023-03-22T12:06:33.437Z,5.10
2023-03-22T12:09:28.242Z,6.67
2023-03-22T12:12:17.863Z,6.03
2023-03-22T12:15:13.722Z,8.52
2023-03-22T12:18:07.695Z,7.38
2023-03-22T12:20:55.798Z,7.07
2023-03-22T12:23:43.315Z,7.78
2023-03-22T12:26:33.347Z,8.63
2023-03-22T12:29:19.766Z,7.32
2023-03-22T12:32:09.775Z,11.88
2023-03-22T12:35:05.452Z,6.38
2023-03-22T12:38:05.010Z,10.80
2023-03-22T12:40:54.238Z,6.32
2023-03-22T12:43:46.796Z,9.32
2023-03-22T12:46:39.957Z,7.85
2023-03-22T12:49:34.446Z,9.07
2023-03-22T12:52:32.035Z,7.13
2023-03-22T12:55:26.053Z,5.22
2023-03-22T12:58:19.743Z,7.72
2023-03-22T13:01:21.031Z,8.30
2023-03-22T13:04:27.491Z,5.03
2023-03-22T13:07:16.646Z,4.90
2023-03-22T13:10:47.861Z,6.28
2023-03-22T13:13:44.381Z,6.13
2023-03-22T13:16:52.105Z,7.70
2023-03-22T13:19:38.170Z,5.72
2023-03-22T13:22:28.113Z,3.53
2023-03-22T13:25:29.099Z,6.72
2023-03-22T13:28:23.846Z,3.75
2023-03-22T13:31:34.182Z,8.25
2023-03-22T13:34:21.495Z,8.10
2023-03-22T13:37:17.769Z,5.35
2023-03-22T13:40:12.786Z,5.50
2023-03-22T13:43:11.560Z,7.15
2023-03-22T13:46:09.768Z,4.13
2023-03-22T13:49:29.064Z,3.45
2023-03-22T13:52:33.771Z,5.10
2023-03-22T13:55:43.891Z,6.85
2023-03-22T13:58:36.560Z,5.85
2023-03-22T14:01:29.280Z,5.93
2023-03-22T14:04:22.759Z,4.13
2023-03-22T14:07:15.414Z,7.03
2023-03-22T14:10:05.578Z,4.75
2023-03-22T14:12:54.797Z,5.10
2023-03-22T14:15:45.223Z,7.00
2023-03-22T14:18:32.555Z,6.05
2023-03-22T14:21:29.165Z,8.10
